Borken-Hoxfeld Airport


Codes: EDLY/
Name: Borken-Hoxfeld Airport
City: Borken
Country: Germany
Elevation: 157 ft.

Photos at Borken-Hoxfeld Airport


   Photos courtesy of SpottingLog. You can add your own sightings and photos by signing up for a free trial today.



No photos found.

Weather at Borken-Hoxfeld Airport


Time (UTC)DescriptionTempratureWindCloud coverageVisibilityPressureHumidity
19-Apr-2024 03:00Moderate Rain6°C20 mph, SW100%7141m1010hPa96%
19-Apr-2024 06:00Moderate Rain6°C20 mph, SW100%2035m1009hPa96%
19-Apr-2024 09:00Light Rain8°C16 mph, NW100%10000m1008hPa88%
19-Apr-2024 12:00Light Rain8°C18 mph, NW100%8879m1006hPa90%
19-Apr-2024 15:00Light Rain9°C20 mph, NW99%10000m1007hPa74%
19-Apr-2024 18:00Light Rain6°C20 mph, NW74%10000m1009hPa76%
19-Apr-2024 21:00Light Rain6°C16 mph, NW100%10000m1012hPa82%
20-Apr-2024 00:00Light Rain6°C13 mph, NW99%10000m1014hPa80%
20-Apr-2024 03:00Light Rain3°C9 mph, NW66%10000m1016hPa86%
20-Apr-2024 06:00Scattered Clouds4°C7 mph, NW50%10000m1019hPa82%
20-Apr-2024 09:00Light Rain8°C9 mph, NW100%3607m1020hPa66%
20-Apr-2024 12:00Light Rain6°C13 mph, N100%10000m1022hPa82%
20-Apr-2024 15:00Light Rain9°C9 mph, NW96%10000m1021hPa60%
20-Apr-2024 18:00Light Rain6°C9 mph, NW93%10000m1022hPa85%
20-Apr-2024 21:00Light Rain5°C4 mph, N97%10000m1023hPa90%
21-Apr-2024 00:00Broken Clouds3°C7 mph, NE83%10000m1023hPa96%
21-Apr-2024 03:00Few Clouds2°C7 mph, NE23%10000m1025hPa96%
21-Apr-2024 06:00Few Clouds3°C7 mph, NE20%10000m1026hPa92%
21-Apr-2024 09:00Scattered Clouds8°C9 mph, NE33%10000m1027hPa61%
21-Apr-2024 12:00Light Rain9°C9 mph, NE66%10000m1027hPa53%
21-Apr-2024 15:00Overcast Clouds11°C11 mph, NE98%10000m1026hPa46%
21-Apr-2024 18:00Overcast Clouds8°C9 mph, NE91%10000m1026hPa61%
21-Apr-2024 21:00Overcast Clouds5°C11 mph, NE98%10000m1028hPa78%
22-Apr-2024 00:00Overcast Clouds3°C7 mph, NE97%10000m1028hPa86%
22-Apr-2024 03:00Overcast Clouds4°C4 mph, N100%10000m1027hPa75%
22-Apr-2024 06:00Overcast Clouds4°C7 mph, NE100%10000m1027hPa72%
22-Apr-2024 09:00Overcast Clouds7°C11 mph, N100%10000m1026hPa53%
22-Apr-2024 12:00Overcast Clouds9°C9 mph, N100%10000m1024hPa40%
22-Apr-2024 15:00Light Rain8°C9 mph, NE100%10000m1023hPa56%
22-Apr-2024 18:00Light Rain6°C7 mph, N100%10000m1022hPa68%
22-Apr-2024 21:00Light Rain3°C7 mph, NE99%10000m1023hPa81%
23-Apr-2024 00:00Broken Clouds2°C7 mph, E53%10000m1022hPa83%
23-Apr-2024 03:00Clear Sky1°C7 mph, E9%10000m1021hPa87%
23-Apr-2024 06:00Few Clouds2°C7 mph, E18%10000m1021hPa84%
23-Apr-2024 09:00Scattered Clouds8°C11 mph, E29%10000m1020hPa54%
23-Apr-2024 12:00Scattered Clouds11°C9 mph, NE42%10000m1019hPa47%
23-Apr-2024 15:00Overcast Clouds11°C9 mph, NE99%10000m1018hPa47%
23-Apr-2024 18:00Broken Clouds8°C7 mph, NE61%10000m1017hPa66%
23-Apr-2024 21:00Clear Sky5°C7 mph, N10%10000m1018hPa71%
24-Apr-2024 00:00Scattered Clouds3°C7 mph, N26%10000m1017hPa84%